sensor_id;sensor_type;location;lat;lon;timestamp;P1;durP1;ratioP1;P2;durP2;ratioP2
10201;SDS011;5143;42.584;23.164;2024-03-22T00:01:41;19.77;;;7.60;;
10201;SDS011;5143;42.584;23.164;2024-03-22T00:04:08;11.33;;;6.47;;
10201;SDS011;5143;42.584;23.164;2024-03-22T00:06:33;6.43;;;4.63;;
10201;SDS011;5143;42.584;23.164;2024-03-22T00:09:00;11.20;;;5.50;;
10201;SDS011;5143;42.584;23.164;2024-03-22T00:11:25;8.33;;;4.67;;
10201;SDS011;5143;42.584;23.164;2024-03-22T00:13:52;10.63;;;5.20;;
10201;SDS011;5143;42.584;23.164;2024-03-22T00:16:17;8.53;;;4.70;;
10201;SDS011;5143;42.584;23.164;2024-03-22T00:18:45;9.37;;;5.40;;
10201;SDS011;5143;42.584;23.164;2024-03-22T00:21:10;12.17;;;4.63;;
10201;SDS011;5143;42.584;23.164;2024-03-22T00:23:37;9.53;;;4.73;;
10201;SDS011;5143;42.584;23.164;2024-03-22T00:26:02;10.27;;;4.80;;
10201;SDS011;5143;42.584;23.164;2024-03-22T00:28:29;8.47;;;4.57;;
10201;SDS011;5143;42.584;23.164;2024-03-22T00:30:54;8.40;;;4.33;;
10201;SDS011;5143;42.584;23.164;2024-03-22T00:33:21;7.10;;;4.50;;
10201;SDS011;5143;42.584;23.164;2024-03-22T00:35:47;10.33;;;5.77;;
10201;SDS011;5143;42.584;23.164;2024-03-22T00:38:14;12.03;;;5.40;;
10201;SDS011;5143;42.584;23.164;2024-03-22T00:40:39;12.37;;;7.23;;
10201;SDS011;5143;42.584;23.164;2024-03-22T00:43:06;12.53;;;6.30;;
10201;SDS011;5143;42.584;23.164;2024-03-22T00:45:31;15.73;;;7.60;;
10201;SDS011;5143;42.584;23.164;2024-03-22T00:47:58;14.37;;;6.43;;
10201;SDS011;5143;42.584;23.164;2024-03-22T00:50:23;14.23;;;6.40;;
10201;SDS011;5143;42.584;23.164;2024-03-22T00:52:51;13.60;;;6.03;;
10201;SDS011;5143;42.584;23.164;2024-03-22T00:55:20;10.90;;;5.53;;
10201;SDS011;5143;42.584;23.164;2024-03-22T00:57:45;15.23;;;6.13;;
10201;SDS011;5143;42.584;23.164;2024-03-22T01:00:12;8.03;;;4.83;;
10201;SDS011;5143;42.584;23.164;2024-03-22T01:02:38;8.80;;;4.67;;
10201;SDS011;5143;42.584;23.164;2024-03-22T01:05:05;8.27;;;4.20;;
10201;SDS011;5143;42.584;23.164;2024-03-22T01:07:30;8.00;;;4.67;;
10201;SDS011;5143;42.584;23.164;2024-03-22T01:09:58;9.43;;;5.17;;
10201;SDS011;5143;42.584;23.164;2024-03-22T01:12:24;8.47;;;5.23;;
10201;SDS011;5143;42.584;23.164;2024-03-22T01:14:50;9.83;;;5.37;;
10201;SDS011;5143;42.584;23.164;2024-03-22T01:17:15;9.53;;;5.17;;
10201;SDS011;5143;42.584;23.164;2024-03-22T01:19:42;11.13;;;5.97;;
10201;SDS011;5143;42.584;23.164;2024-03-22T01:22:08;12.23;;;5.00;;
10201;SDS011;5143;42.584;23.164;2024-03-22T01:24:34;9.73;;;6.00;;
10201;SDS011;5143;42.584;23.164;2024-03-22T01:27:01;8.93;;;4.90;;
10201;SDS011;5143;42.584;23.164;2024-03-22T01:29:27;6.80;;;4.63;;
10201;SDS011;5143;42.584;23.164;2024-03-22T01:31:55;9.47;;;5.13;;
10201;SDS011;5143;42.584;23.164;2024-03-22T01:34:22;7.47;;;5.00;;
10201;SDS011;5143;42.584;23.164;2024-03-22T01:36:47;9.10;;;4.90;;
10201;SDS011;5143;42.584;23.164;2024-03-22T01:39:13;10.87;;;5.63;;
10201;SDS011;5143;42.584;23.164;2024-03-22T01:41:39;10.73;;;5.40;;
10201;SDS011;5143;42.584;23.164;2024-03-22T01:44:07;8.93;;;5.53;;
10201;SDS011;5143;42.584;23.164;2024-03-22T01:46:32;7.50;;;4.40;;
10201;SDS011;5143;42.584;23.164;2024-03-22T01:48:59;7.33;;;4.77;;
10201;SDS011;5143;42.584;23.164;2024-03-22T01:51:24;9.03;;;4.40;;
10201;SDS011;5143;42.584;23.164;2024-03-22T01:53:51;9.67;;;5.23;;
10201;SDS011;5143;42.584;23.164;2024-03-22T01:56:17;10.87;;;4.87;;
10201;SDS011;5143;42.584;23.164;2024-03-22T01:58:44;8.37;;;4.77;;
10201;SDS011;5143;42.584;23.164;2024-03-22T02:01:11;13.33;;;5.00;;
10201;SDS011;5143;42.584;23.164;2024-03-22T02:03:38;9.37;;;4.93;;
10201;SDS011;5143;42.584;23.164;2024-03-22T02:06:03;8.33;;;4.80;;
10201;SDS011;5143;42.584;23.164;2024-03-22T02:08:30;12.20;;;5.33;;
10201;SDS011;5143;42.584;23.164;2024-03-22T02:10:55;8.90;;;4.57;;
10201;SDS011;5143;42.584;23.164;2024-03-22T02:13:22;8.67;;;5.00;;
10201;SDS011;5143;42.584;23.164;2024-03-22T02:15:47;8.50;;;5.03;;
10201;SDS011;5143;42.584;23.164;2024-03-22T02:18:15;8.17;;;5.07;;
10201;SDS011;5143;42.584;23.164;2024-03-22T02:20:41;11.30;;;4.90;;
10201;SDS011;5143;42.584;23.164;2024-03-22T02:23:07;13.03;;;5.63;;
10201;SDS011;5143;42.584;23.164;2024-03-22T02:25:34;8.03;;;5.40;;
10201;SDS011;5143;42.584;23.164;2024-03-22T02:28:00;10.77;;;5.80;;
10201;SDS011;5143;42.584;23.164;2024-03-22T02:30:26;12.37;;;6.07;;
10201;SDS011;5143;42.584;23.164;2024-03-22T02:32:52;9.33;;;5.30;;
10201;SDS011;5143;42.584;23.164;2024-03-22T02:35:17;10.57;;;5.20;;
10201;SDS011;5143;42.584;23.164;2024-03-22T02:37:44;10.80;;;5.70;;
10201;SDS011;5143;42.584;23.164;2024-03-22T02:40:10;7.17;;;4.67;;
10201;SDS011;5143;42.584;23.164;2024-03-22T02:42:38;8.17;;;4.87;;
10201;SDS011;5143;42.584;23.164;2024-03-22T02:45:03;6.97;;;4.30;;
10201;SDS011;5143;42.584;23.164;2024-03-22T02:47:30;7.67;;;4.17;;
10201;SDS011;5143;42.584;23.164;2024-03-22T02:49:55;10.40;;;4.63;;
10201;SDS011;5143;42.584;23.164;2024-03-22T02:52:22;7.67;;;4.70;;
10201;SDS011;5143;42.584;23.164;2024-03-22T02:54:47;6.63;;;4.20;;
10201;SDS011;5143;42.584;23.164;2024-03-22T02:57:14;7.40;;;4.53;;
10201;SDS011;5143;42.584;23.164;2024-03-22T02:59:40;6.50;;;4.37;;
10201;SDS011;5143;42.584;23.164;2024-03-22T03:02:07;14.27;;;4.50;;
10201;SDS011;5143;42.584;23.164;2024-03-22T03:04:32;10.37;;;4.57;;
10201;SDS011;5143;42.584;23.164;2024-03-22T03:06:59;7.87;;;4.73;;
10201;SDS011;5143;42.584;23.164;2024-03-22T03:09:24;12.77;;;4.70;;
10201;SDS011;5143;42.584;23.164;2024-03-22T03:11:51;6.67;;;4.73;;
10201;SDS011;5143;42.584;23.164;2024-03-22T03:14:17;12.23;;;4.83;;
10201;SDS011;5143;42.584;23.164;2024-03-22T03:16:45;5.97;;;4.17;;
10201;SDS011;5143;42.584;23.164;2024-03-22T03:19:10;6.50;;;4.37;;
10201;SDS011;5143;42.584;23.164;2024-03-22T03:21:36;10.23;;;4.17;;
10201;SDS011;5143;42.584;23.164;2024-03-22T03:24:02;13.13;;;4.70;;
10201;SDS011;5143;42.584;23.164;2024-03-22T03:26:28;13.43;;;4.60;;
10201;SDS011;5143;42.584;23.164;2024-03-22T03:28:54;6.83;;;4.50;;
10201;SDS011;5143;42.584;23.164;2024-03-22T03:31:21;8.03;;;4.73;;
10201;SDS011;5143;42.584;23.164;2024-03-22T03:33:47;10.97;;;4.60;;
10201;SDS011;5143;42.584;23.164;2024-03-22T03:36:14;7.57;;;4.20;;
10201;SDS011;5143;42.584;23.164;2024-03-22T03:38:39;8.20;;;4.60;;
10201;SDS011;5143;42.584;23.164;2024-03-22T03:41:06;15.30;;;4.23;;
10201;SDS011;5143;42.584;23.164;2024-03-22T03:43:32;10.23;;;4.80;;
10201;SDS011;5143;42.584;23.164;2024-03-22T03:45:58;9.87;;;4.87;;
10201;SDS011;5143;42.584;23.164;2024-03-22T03:48:25;8.33;;;5.13;;
10201;SDS011;5143;42.584;23.164;2024-03-22T03:50:53;8.73;;;4.47;;
10201;SDS011;5143;42.584;23.164;2024-03-22T03:53:19;9.77;;;5.07;;
10201;SDS011;5143;42.584;23.164;2024-03-22T03:55:46;5.57;;;4.07;;
10201;SDS011;5143;42.584;23.164;2024-03-22T03:58:12;6.93;;;4.67;;
10201;SDS011;5143;42.584;23.164;2024-03-22T04:00:38;16.10;;;5.40;;
10201;SDS011;5143;42.584;23.164;2024-03-22T04:03:04;10.73;;;5.00;;
10201;SDS011;5143;42.584;23.164;2024-03-22T04:05:30;9.87;;;4.00;;
10201;SDS011;5143;42.584;23.164;2024-03-22T04:07:57;16.20;;;5.00;;
10201;SDS011;5143;42.584;23.164;2024-03-22T04:10:23;9.17;;;4.77;;
10201;SDS011;5143;42.584;23.164;2024-03-22T04:12:49;14.87;;;5.73;;
10201;SDS011;5143;42.584;23.164;2024-03-22T04:15:15;19.87;;;5.30;;
10201;SDS011;5143;42.584;23.164;2024-03-22T04:17:41;20.20;;;5.50;;
10201;SDS011;5143;42.584;23.164;2024-03-22T04:20:07;14.87;;;6.07;;
10201;SDS011;5143;42.584;23.164;2024-03-22T04:22:33;21.00;;;7.97;;
10201;SDS011;5143;42.584;23.164;2024-03-22T04:25:01;10.10;;;5.47;;
10201;SDS011;5143;42.584;23.164;2024-03-22T04:27:26;20.83;;;7.80;;
10201;SDS011;5143;42.584;23.164;2024-03-22T04:29:53;17.53;;;7.30;;
10201;SDS011;5143;42.584;23.164;2024-03-22T04:32:18;17.33;;;4.87;;
10201;SDS011;5143;42.584;23.164;2024-03-22T04:34:45;11.57;;;4.93;;
10201;SDS011;5143;42.584;23.164;2024-03-22T04:37:10;8.83;;;4.47;;
10201;SDS011;5143;42.584;23.164;2024-03-22T04:39:37;9.30;;;5.07;;
10201;SDS011;5143;42.584;23.164;2024-03-22T04:42:05;16.60;;;5.67;;
10201;SDS011;5143;42.584;23.164;2024-03-22T04:44:31;7.93;;;5.67;;
10201;SDS011;5143;42.584;23.164;2024-03-22T04:46:57;10.47;;;5.37;;
10201;SDS011;5143;42.584;23.164;2024-03-22T04:49:23;8.93;;;5.60;;
10201;SDS011;5143;42.584;23.164;2024-03-22T04:51:49;24.50;;;6.03;;
10201;SDS011;5143;42.584;23.164;2024-03-22T04:54:15;13.73;;;6.57;;
10201;SDS011;5143;42.584;23.164;2024-03-22T04:56:41;13.87;;;5.53;;
10201;SDS011;5143;42.584;23.164;2024-03-22T04:59:08;12.07;;;5.53;;
10201;SDS011;5143;42.584;23.164;2024-03-22T05:01:34;16.30;;;5.33;;
10201;SDS011;5143;42.584;23.164;2024-03-22T05:04:00;16.03;;;5.27;;
10201;SDS011;5143;42.584;23.164;2024-03-22T05:06:26;13.77;;;5.47;;
10201;SDS011;5143;42.584;23.164;2024-03-22T05:08:53;15.10;;;5.57;;
10201;SDS011;5143;42.584;23.164;2024-03-22T05:11:19;29.33;;;6.80;;
10201;SDS011;5143;42.584;23.164;2024-03-22T05:13:46;19.23;;;5.67;;
10201;SDS011;5143;42.584;23.164;2024-03-22T05:16:13;9.57;;;5.87;;
10201;SDS011;5143;42.584;23.164;2024-03-22T05:18:41;12.73;;;5.80;;
10201;SDS011;5143;42.584;23.164;2024-03-22T05:21:06;12.50;;;6.43;;
10201;SDS011;5143;42.584;23.164;2024-03-22T05:23:33;16.43;;;5.40;;
10201;SDS011;5143;42.584;23.164;2024-03-22T05:25:58;14.87;;;5.60;;
10201;SDS011;5143;42.584;23.164;2024-03-22T05:28:25;65.83;;;24.67;;
10201;SDS011;5143;42.584;23.164;2024-03-22T05:30:50;49.63;;;20.43;;
10201;SDS011;5143;42.584;23.164;2024-03-22T05:33:18;21.37;;;10.00;;
10201;SDS011;5143;42.584;23.164;2024-03-22T05:35:43;13.30;;;7.13;;
10201;SDS011;5143;42.584;23.164;2024-03-22T05:38:10;29.53;;;7.57;;
10201;SDS011;5143;42.584;23.164;2024-03-22T05:40:36;20.27;;;7.57;;
10201;SDS011;5143;42.584;23.164;2024-03-22T05:43:03;34.53;;;9.07;;
10201;SDS011;5143;42.584;23.164;2024-03-22T05:45:29;19.53;;;8.00;;
10201;SDS011;5143;42.584;23.164;2024-03-22T05:47:55;20.43;;;9.33;;
10201;SDS011;5143;42.584;23.164;2024-03-22T05:50:22;17.17;;;9.50;;
10201;SDS011;5143;42.584;23.164;2024-03-22T05:52:49;26.00;;;9.87;;
10201;SDS011;5143;42.584;23.164;2024-03-22T05:55:14;35.37;;;13.13;;
10201;SDS011;5143;42.584;23.164;2024-03-22T05:57:41;29.83;;;18.07;;
10201;SDS011;5143;42.584;23.164;2024-03-22T06:00:06;32.93;;;14.93;;
10201;SDS011;5143;42.584;23.164;2024-03-22T06:02:33;35.13;;;18.97;;
10201;SDS011;5143;42.584;23.164;2024-03-22T06:05:00;57.90;;;31.83;;
10201;SDS011;5143;42.584;23.164;2024-03-22T06:07:27;59.80;;;31.60;;
10201;SDS011;5143;42.584;23.164;2024-03-22T06:09:53;51.33;;;20.07;;
10201;SDS011;5143;42.584;23.164;2024-03-22T06:12:19;35.47;;;19.10;;
10201;SDS011;5143;42.584;23.164;2024-03-22T06:14:47;35.87;;;17.13;;
10201;SDS011;5143;42.584;23.164;2024-03-22T06:17:13;20.63;;;12.73;;
10201;SDS011;5143;42.584;23.164;2024-03-22T06:19:40;17.47;;;9.73;;
10201;SDS011;5143;42.584;23.164;2024-03-22T06:22:06;13.17;;;8.83;;
10201;SDS011;5143;42.584;23.164;2024-03-22T06:24:34;15.23;;;7.83;;
10201;SDS011;5143;42.584;23.164;2024-03-22T06:26:59;14.53;;;6.63;;
10201;SDS011;5143;42.584;23.164;2024-03-22T06:29:26;13.40;;;6.50;;
10201;SDS011;5143;42.584;23.164;2024-03-22T06:31:52;17.80;;;6.37;;
10201;SDS011;5143;42.584;23.164;2024-03-22T06:34:18;10.07;;;6.23;;
10201;SDS011;5143;42.584;23.164;2024-03-22T06:36:44;18.27;;;8.13;;
10201;SDS011;5143;42.584;23.164;2024-03-22T06:39:12;16.33;;;8.20;;
10201;SDS011;5143;42.584;23.164;2024-03-22T06:41:42;14.50;;;6.83;;
10201;SDS011;5143;42.584;23.164;2024-03-22T06:44:10;18.20;;;6.83;;
10201;SDS011;5143;42.584;23.164;2024-03-22T06:46:37;10.27;;;6.33;;
10201;SDS011;5143;42.584;23.164;2024-03-22T06:49:03;10.50;;;6.00;;
10201;SDS011;5143;42.584;23.164;2024-03-22T06:51:29;10.50;;;5.67;;
10201;SDS011;5143;42.584;23.164;2024-03-22T06:53:55;12.33;;;6.07;;
10201;SDS011;5143;42.584;23.164;2024-03-22T06:56:21;16.37;;;6.07;;
10201;SDS011;5143;42.584;23.164;2024-03-22T06:58:49;15.63;;;6.80;;
10201;SDS011;5143;42.584;23.164;2024-03-22T07:01:14;16.20;;;7.23;;
10201;SDS011;5143;42.584;23.164;2024-03-22T07:03:41;13.47;;;6.40;;
10201;SDS011;5143;42.584;23.164;2024-03-22T07:06:10;14.37;;;7.43;;
10201;SDS011;5143;42.584;23.164;2024-03-22T07:08:37;15.03;;;6.73;;
10201;SDS011;5143;42.584;23.164;2024-03-22T07:11:04;12.47;;;6.90;;
10201;SDS011;5143;42.584;23.164;2024-03-22T07:13:31;13.43;;;7.33;;
10201;SDS011;5143;42.584;23.164;2024-03-22T07:15:57;16.30;;;6.80;;
10201;SDS011;5143;42.584;23.164;2024-03-22T07:18:24;18.23;;;7.40;;
10201;SDS011;5143;42.584;23.164;2024-03-22T07:20:49;19.13;;;6.93;;
10201;SDS011;5143;42.584;23.164;2024-03-22T07:23:16;33.37;;;7.27;;
10201;SDS011;5143;42.584;23.164;2024-03-22T07:25:41;16.00;;;6.60;;
10201;SDS011;5143;42.584;23.164;2024-03-22T07:28:10;14.80;;;5.70;;
10201;SDS011;5143;42.584;23.164;2024-03-22T07:30:36;14.53;;;5.30;;
10201;SDS011;5143;42.584;23.164;2024-03-22T07:33:04;11.37;;;5.60;;
10201;SDS011;5143;42.584;23.164;2024-03-22T07:35:29;10.77;;;5.17;;
10201;SDS011;5143;42.584;23.164;2024-03-22T07:37:56;7.83;;;4.87;;
10201;SDS011;5143;42.584;23.164;2024-03-22T07:40:21;11.03;;;5.50;;
10201;SDS011;5143;42.584;23.164;2024-03-22T07:42:48;9.23;;;5.03;;
10201;SDS011;5143;42.584;23.164;2024-03-22T07:45:14;9.30;;;4.70;;
10201;SDS011;5143;42.584;23.164;2024-03-22T07:47:40;9.13;;;4.37;;
10201;SDS011;5143;42.584;23.164;2024-03-22T07:50:09;8.03;;;5.20;;
10201;SDS011;5143;42.584;23.164;2024-03-22T07:52:35;10.70;;;5.70;;
10201;SDS011;5143;42.584;23.164;2024-03-22T07:55:01;10.90;;;4.53;;
10201;SDS011;5143;42.584;23.164;2024-03-22T07:57:28;18.23;;;5.43;;
10201;SDS011;5143;42.584;23.164;2024-03-22T07:59:53;13.63;;;5.30;;
10201;SDS011;5143;42.584;23.164;2024-03-22T08:02:19;11.20;;;4.80;;
10201;SDS011;5143;42.584;23.164;2024-03-22T08:04:45;6.63;;;3.93;;
10201;SDS011;5143;42.584;23.164;2024-03-22T08:07:13;9.23;;;5.10;;
10201;SDS011;5143;42.584;23.164;2024-03-22T08:09:38;13.30;;;4.30;;
10201;SDS011;5143;42.584;23.164;2024-03-22T08:12:05;11.30;;;4.47;;
10201;SDS011;5143;42.584;23.164;2024-03-22T08:14:31;16.43;;;4.80;;
10201;SDS011;5143;42.584;23.164;2024-03-22T08:16:57;9.63;;;4.43;;
10201;SDS011;5143;42.584;23.164;2024-03-22T08:19:23;8.10;;;4.67;;
10201;SDS011;5143;42.584;23.164;2024-03-22T08:21:49;7.97;;;4.13;;
10201;SDS011;5143;42.584;23.164;2024-03-22T08:24:16;6.73;;;3.93;;
10201;SDS011;5143;42.584;23.164;2024-03-22T08:26:43;8.87;;;4.30;;
10201;SDS011;5143;42.584;23.164;2024-03-22T08:29:11;12.43;;;4.73;;
10201;SDS011;5143;42.584;23.164;2024-03-22T08:31:39;12.53;;;4.53;;
10201;SDS011;5143;42.584;23.164;2024-03-22T08:34:05;4.53;;;3.43;;
10201;SDS011;5143;42.584;23.164;2024-03-22T08:36:31;8.33;;;4.23;;
10201;SDS011;5143;42.584;23.164;2024-03-22T08:38:56;6.77;;;3.90;;
10201;SDS011;5143;42.584;23.164;2024-03-22T08:41:24;6.43;;;3.80;;
10201;SDS011;5143;42.584;23.164;2024-03-22T08:43:50;4.30;;;3.70;;
10201;SDS011;5143;42.584;23.164;2024-03-22T08:46:16;3.93;;;2.73;;
10201;SDS011;5143;42.584;23.164;2024-03-22T08:48:42;5.33;;;3.73;;
10201;SDS011;5143;42.584;23.164;2024-03-22T08:51:08;7.37;;;3.73;;
10201;SDS011;5143;42.584;23.164;2024-03-22T08:53:33;5.97;;;3.43;;
10201;SDS011;5143;42.584;23.164;2024-03-22T08:56:00;6.90;;;3.20;;
10201;SDS011;5143;42.584;23.164;2024-03-22T08:58:27;4.50;;;3.00;;
10201;SDS011;5143;42.584;23.164;2024-03-22T09:00:53;4.27;;;3.13;;
10201;SDS011;5143;42.584;23.164;2024-03-22T09:03:19;4.83;;;2.80;;
10201;SDS011;5143;42.584;23.164;2024-03-22T09:05:46;3.87;;;2.83;;
10201;SDS011;5143;42.584;23.164;2024-03-22T09:08:11;6.03;;;3.10;;
10201;SDS011;5143;42.584;23.164;2024-03-22T09:10:38;7.67;;;3.40;;
10201;SDS011;5143;42.584;23.164;2024-03-22T09:13:04;8.13;;;3.47;;
10201;SDS011;5143;42.584;23.164;2024-03-22T09:15:31;3.63;;;3.00;;
10201;SDS011;5143;42.584;23.164;2024-03-22T09:17:57;4.60;;;2.87;;
10201;SDS011;5143;42.584;23.164;2024-03-22T09:20:23;4.27;;;3.30;;
10201;SDS011;5143;42.584;23.164;2024-03-22T09:22:49;4.80;;;2.70;;
10201;SDS011;5143;42.584;23.164;2024-03-22T09:25:15;4.60;;;2.67;;
10201;SDS011;5143;42.584;23.164;2024-03-22T09:27:41;4.43;;;3.93;;
10201;SDS011;5143;42.584;23.164;2024-03-22T09:30:07;4.13;;;2.60;;
10201;SDS011;5143;42.584;23.164;2024-03-22T09:32:36;7.13;;;3.40;;
10201;SDS011;5143;42.584;23.164;2024-03-22T09:35:01;6.53;;;2.50;;
10201;SDS011;5143;42.584;23.164;2024-03-22T09:37:28;4.03;;;2.90;;
10201;SDS011;5143;42.584;23.164;2024-03-22T09:39:53;5.87;;;3.10;;
10201;SDS011;5143;42.584;23.164;2024-03-22T09:42:20;5.23;;;3.07;;
10201;SDS011;5143;42.584;23.164;2024-03-22T09:44:48;5.97;;;2.70;;
10201;SDS011;5143;42.584;23.164;2024-03-22T09:47:16;3.87;;;2.80;;
10201;SDS011;5143;42.584;23.164;2024-03-22T09:49:43;5.93;;;2.97;;
10201;SDS011;5143;42.584;23.164;2024-03-22T09:52:14;4.33;;;3.00;;
10201;SDS011;5143;42.584;23.164;2024-03-22T09:54:41;4.43;;;3.03;;
10201;SDS011;5143;42.584;23.164;2024-03-22T09:57:08;7.30;;;3.20;;
10201;SDS011;5143;42.584;23.164;2024-03-22T09:59:34;5.53;;;2.70;;
10201;SDS011;5143;42.584;23.164;2024-03-22T10:02:01;3.73;;;2.60;;
10201;SDS011;5143;42.584;23.164;2024-03-22T10:04:28;5.23;;;2.70;;
10201;SDS011;5143;42.584;23.164;2024-03-22T10:06:56;4.13;;;2.77;;
10201;SDS011;5143;42.584;23.164;2024-03-22T10:09:27;6.07;;;3.20;;
10201;SDS011;5143;42.584;23.164;2024-03-22T10:11:55;11.13;;;3.57;;
10201;SDS011;5143;42.584;23.164;2024-03-22T10:14:20;4.37;;;2.70;;
10201;SDS011;5143;42.584;23.164;2024-03-22T10:16:46;4.30;;;3.30;;
10201;SDS011;5143;42.584;23.164;2024-03-22T10:19:12;3.67;;;2.73;;
10201;SDS011;5143;42.584;23.164;2024-03-22T10:21:38;5.10;;;3.50;;
10201;SDS011;5143;42.584;23.164;2024-03-22T10:24:06;5.03;;;2.57;;
10201;SDS011;5143;42.584;23.164;2024-03-22T10:26:33;5.00;;;3.00;;
10201;SDS011;5143;42.584;23.164;2024-03-22T10:28:58;12.47;;;3.77;;
10201;SDS011;5143;42.584;23.164;2024-03-22T10:31:25;4.17;;;3.00;;
10201;SDS011;5143;42.584;23.164;2024-03-22T10:33:51;3.70;;;3.17;;
10201;SDS011;5143;42.584;23.164;2024-03-22T10:36:19;5.87;;;3.50;;
10201;SDS011;5143;42.584;23.164;2024-03-22T10:38:45;5.27;;;2.93;;
10201;SDS011;5143;42.584;23.164;2024-03-22T10:41:17;3.47;;;2.80;;
10201;SDS011;5143;42.584;23.164;2024-03-22T10:43:42;4.80;;;2.70;;
10201;SDS011;5143;42.584;23.164;2024-03-22T10:46:08;3.60;;;2.70;;
10201;SDS011;5143;42.584;23.164;2024-03-22T10:48:34;6.57;;;2.97;;
10201;SDS011;5143;42.584;23.164;2024-03-22T10:51:01;5.83;;;3.13;;
10201;SDS011;5143;42.584;23.164;2024-03-22T10:53:27;4.00;;;3.20;;
10201;SDS011;5143;42.584;23.164;2024-03-22T10:55:55;4.70;;;2.80;;
10201;SDS011;5143;42.584;23.164;2024-03-22T10:58:23;3.90;;;2.70;;
10201;SDS011;5143;42.584;23.164;2024-03-22T11:00:51;3.80;;;2.90;;
10201;SDS011;5143;42.584;23.164;2024-03-22T11:03:19;5.40;;;2.73;;
10201;SDS011;5143;42.584;23.164;2024-03-22T11:05:45;2.80;;;2.30;;
10201;SDS011;5143;42.584;23.164;2024-03-22T11:08:11;6.27;;;2.70;;
10201;SDS011;5143;42.584;23.164;2024-03-22T11:10:38;6.90;;;2.77;;
10201;SDS011;5143;42.584;23.164;2024-03-22T11:13:04;3.33;;;2.50;;
10201;SDS011;5143;42.584;23.164;2024-03-22T11:15:33;3.20;;;2.90;;
10201;SDS011;5143;42.584;23.164;2024-03-22T11:17:59;3.07;;;2.50;;
10201;SDS011;5143;42.584;23.164;2024-03-22T11:20:25;6.13;;;3.10;;
10201;SDS011;5143;42.584;23.164;2024-03-22T11:22:51;5.37;;;2.90;;
10201;SDS011;5143;42.584;23.164;2024-03-22T11:25:17;4.60;;;2.70;;
10201;SDS011;5143;42.584;23.164;2024-03-22T11:27:44;3.70;;;2.50;;
10201;SDS011;5143;42.584;23.164;2024-03-22T11:30:10;2.80;;;2.00;;
10201;SDS011;5143;42.584;23.164;2024-03-22T11:32:37;3.67;;;2.70;;
10201;SDS011;5143;42.584;23.164;2024-03-22T11:35:09;3.50;;;2.80;;
10201;SDS011;5143;42.584;23.164;2024-03-22T11:37:34;4.33;;;3.00;;
10201;SDS011;5143;42.584;23.164;2024-03-22T11:40:01;3.60;;;2.80;;
10201;SDS011;5143;42.584;23.164;2024-03-22T11:42:30;5.37;;;2.57;;
10201;SDS011;5143;42.584;23.164;2024-03-22T11:44:57;2.97;;;2.40;;
10201;SDS011;5143;42.584;23.164;2024-03-22T11:47:23;3.40;;;2.37;;
10201;SDS011;5143;42.584;23.164;2024-03-22T11:49:50;3.30;;;2.50;;
10201;SDS011;5143;42.584;23.164;2024-03-22T11:52:16;4.07;;;2.80;;
10201;SDS011;5143;42.584;23.164;2024-03-22T11:54:42;6.20;;;2.90;;
10201;SDS011;5143;42.584;23.164;2024-03-22T11:57:08;7.40;;;2.60;;
10201;SDS011;5143;42.584;23.164;2024-03-22T11:59:35;3.57;;;2.80;;
10201;SDS011;5143;42.584;23.164;2024-03-22T12:02:00;4.00;;;2.67;;
10201;SDS011;5143;42.584;23.164;2024-03-22T12:04:27;20.30;;;14.93;;
10201;SDS011;5143;42.584;23.164;2024-03-22T12:06:53;10.40;;;3.70;;
10201;SDS011;5143;42.584;23.164;2024-03-22T12:09:22;10.50;;;5.50;;
10201;SDS011;5143;42.584;23.164;2024-03-22T12:11:48;5.73;;;2.70;;
10201;SDS011;5143;42.584;23.164;2024-03-22T12:14:14;5.50;;;2.83;;
10201;SDS011;5143;42.584;23.164;2024-03-22T12:16:40;3.50;;;2.60;;
10201;SDS011;5143;42.584;23.164;2024-03-22T12:19:06;3.33;;;2.30;;
10201;SDS011;5143;42.584;23.164;2024-03-22T12:21:32;3.27;;;2.23;;
10201;SDS011;5143;42.584;23.164;2024-03-22T12:23:59;5.07;;;2.90;;
10201;SDS011;5143;42.584;23.164;2024-03-22T12:26:25;2.67;;;2.33;;
10201;SDS011;5143;42.584;23.164;2024-03-22T12:28:51;6.70;;;2.70;;
10201;SDS011;5143;42.584;23.164;2024-03-22T12:31:17;5.10;;;3.00;;
10201;SDS011;5143;42.584;23.164;2024-03-22T12:33:43;9.03;;;2.97;;
10201;SDS011;5143;42.584;23.164;2024-03-22T12:36:09;4.70;;;2.53;;
10201;SDS011;5143;42.584;23.164;2024-03-22T12:38:35;2.60;;;2.40;;
10201;SDS011;5143;42.584;23.164;2024-03-22T12:41:02;4.47;;;2.80;;
10201;SDS011;5143;42.584;23.164;2024-03-22T12:43:29;3.87;;;2.30;;
10201;SDS011;5143;42.584;23.164;2024-03-22T12:45:54;9.83;;;2.80;;
10201;SDS011;5143;42.584;23.164;2024-03-22T12:48:21;3.47;;;2.70;;
10201;SDS011;5143;42.584;23.164;2024-03-22T12:50:46;6.40;;;2.60;;
10201;SDS011;5143;42.584;23.164;2024-03-22T12:53:13;3.80;;;2.70;;
10201;SDS011;5143;42.584;23.164;2024-03-22T12:55:38;4.03;;;2.60;;
10201;SDS011;5143;42.584;23.164;2024-03-22T12:58:06;3.67;;;2.70;;
10201;SDS011;5143;42.584;23.164;2024-03-22T13:00:31;4.93;;;3.00;;
10201;SDS011;5143;42.584;23.164;2024-03-22T13:02:58;3.60;;;2.53;;
10201;SDS011;5143;42.584;23.164;2024-03-22T13:05:24;4.53;;;2.57;;
10201;SDS011;5143;42.584;23.164;2024-03-22T13:07:51;4.50;;;2.93;;
10201;SDS011;5143;42.584;23.164;2024-03-22T13:10:17;3.70;;;2.67;;
10201;SDS011;5143;42.584;23.164;2024-03-22T13:12:43;6.90;;;3.10;;
10201;SDS011;5143;42.584;23.164;2024-03-22T13:15:11;3.17;;;2.63;;
10201;SDS011;5143;42.584;23.164;2024-03-22T13:17:37;3.23;;;2.70;;
10201;SDS011;5143;42.584;23.164;2024-03-22T13:20:03;3.40;;;2.50;;
10201;SDS011;5143;42.584;23.164;2024-03-22T13:22:35;3.43;;;2.47;;
10201;SDS011;5143;42.584;23.164;2024-03-22T13:25:01;4.23;;;2.37;;
10201;SDS011;5143;42.584;23.164;2024-03-22T13:27:31;4.87;;;2.37;;
10201;SDS011;5143;42.584;23.164;2024-03-22T13:29:56;4.20;;;2.60;;
10201;SDS011;5143;42.584;23.164;2024-03-22T13:32:24;6.57;;;2.70;;
10201;SDS011;5143;42.584;23.164;2024-03-22T13:34:50;4.00;;;2.63;;
10201;SDS011;5143;42.584;23.164;2024-03-22T13:37:16;3.57;;;2.07;;
10201;SDS011;5143;42.584;23.164;2024-03-22T13:39:42;3.27;;;2.43;;
10201;SDS011;5143;42.584;23.164;2024-03-22T13:42:08;3.90;;;2.70;;
10201;SDS011;5143;42.584;23.164;2024-03-22T13:44:34;5.17;;;2.87;;
10201;SDS011;5143;42.584;23.164;2024-03-22T13:47:00;3.70;;;2.40;;
10201;SDS011;5143;42.584;23.164;2024-03-22T13:49:27;3.53;;;2.37;;
10201;SDS011;5143;42.584;23.164;2024-03-22T13:51:55;5.87;;;2.60;;
10201;SDS011;5143;42.584;23.164;2024-03-22T13:54:24;3.77;;;2.60;;
10201;SDS011;5143;42.584;23.164;2024-03-22T13:56:50;3.00;;;2.30;;
10201;SDS011;5143;42.584;23.164;2024-03-22T13:59:16;3.87;;;2.73;;
10201;SDS011;5143;42.584;23.164;2024-03-22T14:01:42;4.10;;;2.90;;
10201;SDS011;5143;42.584;23.164;2024-03-22T14:04:10;3.97;;;2.57;;
10201;SDS011;5143;42.584;23.164;2024-03-22T14:06:38;2.97;;;2.40;;
10201;SDS011;5143;42.584;23.164;2024-03-22T14:09:03;6.57;;;2.37;;
10201;SDS011;5143;42.584;23.164;2024-03-22T14:11:30;3.33;;;2.67;;
10201;SDS011;5143;42.584;23.164;2024-03-22T14:13:56;4.10;;;3.10;;
10201;SDS011;5143;42.584;23.164;2024-03-22T14:16:22;4.57;;;2.97;;
10201;SDS011;5143;42.584;23.164;2024-03-22T14:18:48;4.50;;;2.80;;
10201;SDS011;5143;42.584;23.164;2024-03-22T14:21:14;6.80;;;2.83;;
10201;SDS011;5143;42.584;23.164;2024-03-22T14:23:45;3.00;;;2.20;;
10201;SDS011;5143;42.584;23.164;2024-03-22T14:26:12;8.27;;;2.90;;
10201;SDS011;5143;42.584;23.164;2024-03-22T14:28:37;4.47;;;3.00;;
10201;SDS011;5143;42.584;23.164;2024-03-22T14:31:05;3.63;;;2.43;;
10201;SDS011;5143;42.584;23.164;2024-03-22T14:33:33;3.57;;;2.80;;
10201;SDS011;5143;42.584;23.164;2024-03-22T14:36:00;4.60;;;2.67;;
10201;SDS011;5143;42.584;23.164;2024-03-22T14:38:26;5.40;;;2.83;;